Time;durP1;ratioP1;P1;durP2;ratioP2;P2;SDS_P1;SDS_P2;PMS_P1;PMS_P2;Temp;Humidity;BMP_temperature;BMP_pressure;BME280_temperature;BME280_humidity;BME280_pressure;Samples;Min_cycle;Max_cycle;Signal;HPM_P1;HPM_P2
2022/10/03 00:02:42;;;;;;;12.27;3.10;;;13.90;99.90;;;;;;5045667;28;20465;-86
2022/10/03 00:05:17;;;;;;;6.80;2.57;;;13.90;99.90;;;;;;5046229;28;20466;-83
2022/10/03 00:08:00;;;;;;;11.70;3.40;;;13.90;99.90;;;;;;5027100;28;20896;-84
2022/10/03 00:10:51;;;;;;;3.17;2.10;;;13.80;99.90;;;;;;5030936;28;21185;-84
2022/10/03 00:13:48;;;;;;;8.00;2.90;;;13.80;99.90;;;;;;5045988;28;20483;-83
2022/10/03 00:16:35;;;;;;;5.43;2.50;;;13.80;99.90;;;;;;5030233;28;20460;-81
2022/10/03 00:19:08;;;;;;;5.60;2.77;;;13.70;99.90;;;;;;5053288;28;20495;-81
2022/10/03 00:22:13;;;;;;;7.33;3.00;;;13.70;99.90;;;;;;5032968;28;20444;-83
2022/10/03 00:25:04;;;;;;;8.10;3.30;;;13.70;99.90;;;;;;5050241;28;20475;-84
2022/10/03 00:27:54;;;;;;;7.60;3.00;;;13.70;99.90;;;;;;5057592;28;20960;-84
2022/10/03 00:30:23;;;;;;;8.00;2.40;;;13.60;99.90;;;;;;5046824;28;20451;-82
2022/10/03 00:33:15;;;;;;;10.37;3.40;;;13.60;99.90;;;;;;5063183;28;20444;-84
2022/10/03 00:36:33;;;;;;;7.30;2.30;;;13.60;99.90;;;;;;5064794;28;20429;-83
2022/10/03 00:39:30;;;;;;;5.33;2.30;;;13.60;99.90;;;;;;5036648;28;20471;-84
2022/10/03 00:42:19;;;;;;;6.43;2.80;;;13.50;99.90;;;;;;5047888;28;20453;-85
2022/10/03 00:45:16;;;;;;;5.87;3.00;;;13.50;99.90;;;;;;5047729;28;20479;-83
2022/10/03 00:47:59;;;;;;;8.30;2.87;;;13.50;99.90;;;;;;5079999;28;21916;-83
2022/10/03 00:50:49;;;;;;;8.40;3.40;;;13.40;99.90;;;;;;5048025;28;20448;-83
2022/10/03 00:53:34;;;;;;;9.30;2.63;;;13.40;99.90;;;;;;5047242;28;20475;-85
2022/10/03 00:56:42;;;;;;;7.33;3.27;;;13.40;99.90;;;;;;5080274;28;20452;-84
2022/10/03 00:59:28;;;;;;;6.93;3.00;;;13.40;99.90;;;;;;5046206;28;20448;-83
2022/10/03 01:02:15;;;;;;;6.47;2.57;;;13.40;99.90;;;;;;5061451;28;20452;-82
2022/10/03 01:05:11;;;;;;;14.57;4.90;;;13.40;99.90;;;;;;5046564;28;22368;-85
2022/10/03 01:07:58;;;;;;;6.53;2.90;;;13.30;99.90;;;;;;5078877;28;20450;-85
2022/10/03 01:10:47;;;;;;;10.73;2.97;;;13.30;99.90;;;;;;5047083;28;20464;-83
2022/10/03 01:13:32;;;;;;;4.70;2.50;;;13.30;99.90;;;;;;5045829;28;20547;-85
2022/10/03 01:16:20;;;;;;;6.50;2.67;;;13.40;99.90;;;;;;5076824;28;20858;-83
2022/10/03 01:19:12;;;;;;;7.63;3.57;;;13.30;99.90;;;;;;5079157;28;20461;-83
2022/10/03 01:21:47;;;;;;;11.60;3.00;;;13.30;99.90;;;;;;5088182;28;20471;-82
2022/10/03 01:24:43;;;;;;;11.20;3.40;;;13.30;99.90;;;;;;5089561;28;20506;-83
2022/10/03 01:27:25;;;;;;;6.17;3.10;;;13.30;99.90;;;;;;5071945;28;20515;-83
2022/10/03 01:30:21;;;;;;;8.23;3.10;;;13.30;99.90;;;;;;5057248;28;20563;-82
2022/10/03 01:33:09;;;;;;;7.00;3.40;;;13.30;99.90;;;;;;5051216;28;21413;-82
2022/10/03 01:35:52;;;;;;;8.63;3.00;;;13.30;99.90;;;;;;5055186;28;20437;-83
2022/10/03 01:38:41;;;;;;;6.77;3.40;;;13.20;99.90;;;;;;5026872;28;20463;-83
2022/10/03 01:41:22;;;;;;;6.43;3.97;;;13.20;99.90;;;;;;5044964;28;20538;-83
2022/10/03 01:44:01;;;;;;;6.57;3.20;;;13.20;99.90;;;;;;5060130;28;20491;-84
2022/10/03 01:46:46;;;;;;;12.50;3.10;;;13.20;99.90;;;;;;5024925;28;20457;-83
2022/10/03 01:49:39;;;;;;;10.10;3.73;;;13.10;99.90;;;;;;5028286;28;20452;-84
2022/10/03 01:52:14;;;;;;;11.60;2.90;;;13.20;99.90;;;;;;5028808;28;20892;-84
2022/10/03 01:55:06;;;;;;;8.77;3.30;;;13.10;99.90;;;;;;5031443;28;20464;-84
2022/10/03 01:58:06;;;;;;;5.67;3.00;;;13.10;99.90;;;;;;5034112;28;20463;-83
2022/10/03 02:00:54;;;;;;;9.80;2.77;;;13.10;99.90;;;;;;5000463;28;20813;-82
2022/10/03 02:03:45;;;;;;;8.90;3.13;;;13.20;99.90;;;;;;5034391;28;20492;-84
2022/10/03 02:06:41;;;;;;;8.40;2.90;;;13.20;99.90;;;;;;5067138;28;20482;-82
2022/10/03 02:09:28;;;;;;;11.13;2.87;;;13.20;99.90;;;;;;5048953;28;20480;-84
2022/10/03 02:12:24;;;;;;;8.40;3.87;;;13.10;99.90;;;;;;5043943;28;20456;-85
2022/10/03 02:15:00;;;;;;;6.60;2.93;;;13.10;99.90;;;;;;5055463;28;20504;-85
2022/10/03 02:17:51;;;;;;;7.37;2.90;;;13.10;99.90;;;;;;5049157;28;20996;-83
2022/10/03 02:20:24;;;;;;;11.43;3.90;;;13.20;99.90;;;;;;5028791;28;20441;-84
2022/10/03 02:22:56;;;;;;;9.20;3.00;;;13.10;99.90;;;;;;5046369;28;20535;-83
2022/10/03 02:25:30;;;;;;;14.37;3.20;;;13.10;99.90;;;;;;5037004;28;20492;-83
2022/10/03 02:28:02;;;;;;;10.00;3.40;;;13.10;99.90;;;;;;5049354;28;21496;-83
2022/10/03 02:30:53;;;;;;;6.43;3.20;;;13.10;99.90;;;;;;5049565;28;20445;-84
2022/10/03 02:33:58;;;;;;;10.13;3.67;;;13.20;99.90;;;;;;5079493;28;20550;-82
2022/10/03 02:37:02;;;;;;;6.87;3.00;;;13.20;99.90;;;;;;5048853;28;20475;-82
2022/10/03 02:39:43;;;;;;;9.67;3.30;;;13.20;99.90;;;;;;5047781;28;20466;-84
2022/10/03 02:42:37;;;;;;;5.80;3.00;;;13.10;99.90;;;;;;5045205;28;20452;-83
2022/10/03 02:45:26;;;;;;;6.77;3.03;;;13.00;99.90;;;;;;5048876;28;20561;-83
2022/10/03 02:48:14;;;;;;;7.37;3.10;;;13.00;99.90;;;;;;5051974;28;20453;-82
2022/10/03 02:51:06;;;;;;;6.40;2.73;;;12.90;99.90;;;;;;5049352;28;20454;-84
2022/10/03 02:54:07;;;;;;;6.23;3.10;;;12.90;99.90;;;;;;5047327;28;20476;-83
2022/10/03 02:56:55;;;;;;;5.07;2.70;;;12.90;99.90;;;;;;5045932;28;20456;-84
2022/10/03 03:00:01;;;;;;;8.47;3.13;;;12.90;99.90;;;;;;5059330;28;20449;-83
2022/10/03 03:02:46;;;;;;;2.90;2.60;;;12.90;99.90;;;;;;5045114;28;20465;-83
2022/10/03 03:05:34;;;;;;;8.37;3.70;;;12.90;99.90;;;;;;5048559;28;20480;-83
2022/10/03 03:08:59;;;;;;;8.57;3.07;;;12.90;99.90;;;;;;5048069;28;20439;-83
2022/10/03 03:11:38;;;;;;;4.03;3.23;;;12.90;99.90;;;;;;4991924;28;20999;-84
2022/10/03 03:14:38;;;;;;;6.43;2.80;;;12.90;99.90;;;;;;4989833;28;20481;-81
2022/10/03 03:17:46;;;;;;;6.10;3.40;;;13.00;99.90;;;;;;5039281;28;20490;-83
2022/10/03 03:20:52;;;;;;;4.97;2.60;;;12.90;99.90;;;;;;5047851;28;20482;-84
2022/10/03 03:23:49;;;;;;;9.67;3.80;;;12.90;99.90;;;;;;5037938;28;20496;-82
2022/10/03 03:26:34;;;;;;;8.30;3.17;;;13.10;99.90;;;;;;5052943;28;20470;-83
2022/10/03 03:29:24;;;;;;;7.93;3.47;;;13.10;99.90;;;;;;5086837;28;20528;-84
2022/10/03 03:32:02;;;;;;;10.27;4.97;;;13.00;99.90;;;;;;5086717;28;20452;-84
2022/10/03 03:34:41;;;;;;;8.43;4.50;;;12.90;99.90;;;;;;5088830;28;20513;-83
2022/10/03 03:37:09;;;;;;;7.00;3.47;;;13.00;99.90;;;;;;5089135;28;20456;-82
2022/10/03 03:40:08;;;;;;;9.57;3.27;;;12.90;99.90;;;;;;5058313;28;20589;-84
2022/10/03 03:42:56;;;;;;;11.23;4.03;;;13.10;99.90;;;;;;5054415;28;20899;-82
2022/10/03 03:46:01;;;;;;;7.60;3.90;;;13.20;99.90;;;;;;5053484;28;20421;-84
2022/10/03 03:49:00;;;;;;;5.67;3.87;;;13.10;99.90;;;;;;5064283;28;20469;-83
2022/10/03 03:51:35;;;;;;;7.00;3.40;;;12.90;99.90;;;;;;5066383;28;20444;-83
2022/10/03 03:54:23;;;;;;;6.03;3.77;;;12.90;99.90;;;;;;5064521;28;20546;-83
2022/10/03 03:57:47;;;;;;;6.63;3.67;;;12.90;99.90;;;;;;5078085;28;20518;-82
2022/10/03 04:00:19;;;;;;;7.13;3.87;;;12.80;99.90;;;;;;5020537;28;20485;-81
2022/10/03 04:03:00;;;;;;;10.70;4.13;;;12.70;99.90;;;;;;5022038;28;20446;-84
2022/10/03 04:05:34;;;;;;;11.50;3.43;;;12.70;99.90;;;;;;5053338;28;20491;-81
2022/10/03 04:08:14;;;;;;;8.30;4.27;;;12.50;99.90;;;;;;5060514;28;20555;-82
2022/10/03 04:11:06;;;;;;;6.53;4.30;;;12.40;99.90;;;;;;5053843;28;20452;-83
2022/10/03 04:13:33;;;;;;;9.50;3.90;;;12.50;99.90;;;;;;5074880;28;20461;-83
2022/10/03 04:16:08;;;;;;;6.70;4.33;;;12.50;99.90;;;;;;5061589;28;20441;-84
2022/10/03 04:19:02;;;;;;;8.90;4.23;;;12.50;99.90;;;;;;5053475;28;20543;-83
2022/10/03 04:21:50;;;;;;;7.10;4.20;;;12.60;99.90;;;;;;5038778;28;20464;-83
2022/10/03 04:24:35;;;;;;;8.03;4.80;;;12.60;99.90;;;;;;5039988;28;21193;-82
2022/10/03 04:27:28;;;;;;;12.77;4.90;;;12.50;99.90;;;;;;5037733;28;20448;-81
2022/10/03 04:30:17;;;;;;;6.20;4.30;;;12.60;99.90;;;;;;5018606;28;20457;-83
2022/10/03 04:33:06;;;;;;;7.27;4.73;;;12.30;99.90;;;;;;5040622;28;20464;-82
2022/10/03 04:36:11;;;;;;;8.70;4.30;;;12.30;99.90;;;;;;5040485;28;20452;-84
2022/10/03 04:38:59;;;;;;;8.37;3.90;;;12.30;99.90;;;;;;5023748;28;20954;-82
2022/10/03 04:41:52;;;;;;;11.53;4.43;;;12.60;99.90;;;;;;5054857;28;20499;-83
2022/10/03 04:44:39;;;;;;;6.00;4.03;;;12.50;99.90;;;;;;5028568;28;20953;-85
2022/10/03 04:47:32;;;;;;;8.43;4.43;;;12.40;99.90;;;;;;5029175;28;20452;-84
2022/10/03 04:50:32;;;;;;;9.13;4.07;;;12.30;99.90;;;;;;5055379;28;20483;-81
2022/10/03 04:53:40;;;;;;;13.00;4.53;;;12.30;99.90;;;;;;5081286;28;20463;-82
2022/10/03 04:56:16;;;;;;;5.83;3.90;;;12.20;99.90;;;;;;5049869;28;20429;-82
2022/10/03 04:59:20;;;;;;;6.80;3.70;;;12.20;99.90;;;;;;5056436;28;20464;-84
2022/10/03 05:02:13;;;;;;;7.63;3.17;;;12.20;99.90;;;;;;4989297;28;20498;-84
2022/10/03 05:05:14;;;;;;;5.80;4.10;;;12.20;99.90;;;;;;5031831;28;20534;-83
2022/10/03 05:07:53;;;;;;;8.37;3.97;;;12.20;99.90;;;;;;5046708;28;20452;-83
2022/10/03 05:10:38;;;;;;;6.67;3.50;;;12.40;99.90;;;;;;5029321;28;20444;-84
2022/10/03 05:13:36;;;;;;;7.17;4.20;;;12.60;99.90;;;;;;5047153;28;20459;-83
2022/10/03 05:16:22;;;;;;;8.20;4.30;;;12.50;99.90;;;;;;5046623;28;20518;-81
2022/10/03 05:19:04;;;;;;;6.57;3.80;;;12.50;99.90;;;;;;5028363;28;20499;-81
2022/10/03 05:21:42;;;;;;;8.13;4.13;;;12.40;99.90;;;;;;5028443;28;20460;-83
2022/10/03 05:24:35;;;;;;;8.60;3.97;;;12.30;99.90;;;;;;5030657;28;20495;-83
2022/10/03 05:27:34;;;;;;;5.73;3.37;;;12.20;99.90;;;;;;5031598;28;22012;-83
2022/10/03 05:30:14;;;;;;;9.10;4.10;;;12.20;99.90;;;;;;5064253;28;20456;-82
2022/10/03 05:32:41;;;;;;;5.40;3.37;;;12.20;99.90;;;;;;5061215;28;20504;-81
2022/10/03 05:35:50;;;;;;;7.03;4.10;;;12.20;99.90;;;;;;5047264;28;20472;-84
2022/10/03 05:38:59;;;;;;;6.77;3.90;;;12.20;99.90;;;;;;5053220;28;20440;-82
2022/10/03 05:41:36;;;;;;;4.57;3.90;;;12.20;99.90;;;;;;5018781;28;20483;-84
2022/10/03 05:44:17;;;;;;;4.27;3.87;;;12.20;99.90;;;;;;5052466;28;20567;-83
2022/10/03 05:47:43;;;;;;;9.87;3.50;;;12.30;99.90;;;;;;5051766;28;20460;-84
2022/10/03 05:50:27;;;;;;;9.23;4.53;;;12.30;99.90;;;;;;5049991;28;20476;-84
2022/10/03 05:53:13;;;;;;;6.33;3.90;;;12.30;99.90;;;;;;5032268;28;20506;-83
2022/10/03 05:56:21;;;;;;;10.80;3.93;;;12.30;99.90;;;;;;5032800;28;20452;-84
2022/10/03 05:59:19;;;;;;;10.03;4.30;;;12.40;99.90;;;;;;5011739;28;20479;-83
2022/10/03 06:01:57;;;;;;;8.20;4.50;;;12.40;99.90;;;;;;5050521;28;20509;-83
2022/10/03 06:04:27;;;;;;;5.00;4.30;;;12.60;99.90;;;;;;5052690;28;20575;-84
2022/10/03 06:07:13;;;;;;;8.43;4.90;;;12.60;99.90;;;;;;5052925;28;20460;-84
2022/10/03 06:10:03;;;;;;;6.63;4.53;;;12.50;99.90;;;;;;5035894;28;20452;-84
2022/10/03 06:13:06;;;;;;;7.80;4.23;;;12.50;99.90;;;;;;5067886;28;20464;-85
2022/10/03 06:15:57;;;;;;;13.87;4.80;;;12.60;99.90;;;;;;5035818;28;21338;-84
2022/10/03 06:18:38;;;;;;;7.23;4.13;;;12.50;99.90;;;;;;5067798;28;20452;-82
2022/10/03 06:21:21;;;;;;;9.47;4.37;;;12.50;99.90;;;;;;5053446;28;20488;-83
2022/10/03 06:24:19;;;;;;;8.73;4.80;;;12.50;99.90;;;;;;5053076;28;21164;-83
2022/10/03 06:27:13;;;;;;;5.83;4.10;;;12.50;99.90;;;;;;5015355;28;20468;-84
2022/10/03 06:29:51;;;;;;;9.70;5.50;;;12.60;99.90;;;;;;5016196;28;20465;-84
2022/10/03 06:32:47;;;;;;;6.23;4.10;;;12.90;99.90;;;;;;5034551;28;20454;-83
2022/10/03 06:35:51;;;;;;;10.87;6.50;;;13.20;99.90;;;;;;5005991;28;20462;-85
2022/10/03 06:38:35;;;;;;;11.57;4.80;;;13.40;99.90;;;;;;5049693;28;20456;-85
2022/10/03 06:41:32;;;;;;;11.33;4.20;;;13.40;99.90;;;;;;5016252;28;20544;-84
2022/10/03 06:44:30;;;;;;;6.53;4.10;;;13.50;99.90;;;;;;5013917;28;20527;-85
2022/10/03 06:47:22;;;;;;;8.23;5.00;;;13.80;99.90;;;;;;5049322;28;20495;-83
2022/10/03 06:49:48;;;;;;;13.97;5.00;;;14.10;99.90;;;;;;5016325;28;20758;-84
2022/10/03 06:52:28;;;;;;;11.50;4.97;;;14.00;99.90;;;;;;5033032;28;20461;-84
2022/10/03 06:55:22;;;;;;;11.90;5.80;;;14.10;99.90;;;;;;5013323;28;20473;-84
2022/10/03 06:58:27;;;;;;;9.80;5.33;;;14.00;99.90;;;;;;5012449;28;20476;-85
2022/10/03 07:01:11;;;;;;;8.53;4.53;;;13.90;99.90;;;;;;5011693;28;20548;-85
2022/10/03 07:04:27;;;;;;;12.03;6.30;;;14.00;99.90;;;;;;5031662;28;20481;-85
2022/10/03 07:07:12;;;;;;;9.53;4.90;;;14.20;99.90;;;;;;5013371;28;20503;-84
2022/10/03 07:10:00;;;;;;;13.23;5.40;;;14.30;99.90;;;;;;5009205;28;21597;-85
2022/10/03 07:16:25;;;;;;;8.50;4.57;;;16.50;99.90;;;;;;5055308;28;20494;-85
2022/10/03 07:19:25;;;;;;;8.87;4.43;;;19.40;98.00;;;;;;5050160;28;20609;-84
2022/10/03 07:22:45;;;;;;;8.00;4.67;;;21.60;91.20;;;;;;5037699;28;20456;-84
2022/10/03 07:25:44;;;;;;;5.00;4.50;;;22.40;87.00;;;;;;5057333;28;20491;-85
2022/10/03 07:28:39;;;;;;;9.00;4.70;;;23.10;81.90;;;;;;5067084;28;20460;-84
2022/10/03 07:31:42;;;;;;;7.40;4.57;;;23.00;80.40;;;;;;5090610;28;20443;-84
2022/10/03 07:34:51;;;;;;;5.20;4.60;;;23.60;78.70;;;;;;5065996;28;20479;-85
2022/10/03 07:41:20;;;;;;;14.13;4.83;;;24.70;72.40;;;;;;5083859;28;20581;-85
2022/10/03 07:44:12;;;;;;;7.30;6.00;;;23.30;72.00;;;;;;5074794;28;20479;-84
2022/10/03 07:47:13;;;;;;;6.50;5.67;;;20.50;82.30;;;;;;5059961;28;20560;-84
2022/10/03 07:50:17;;;;;;;7.27;5.13;;;18.80;90.40;;;;;;5053920;28;20793;-83
2022/10/03 07:52:59;;;;;;;13.73;6.43;;;17.50;93.70;;;;;;5052250;28;20511;-84
2022/10/03 07:56:10;;;;;;;9.27;6.40;;;17.00;95.50;;;;;;5066547;28;20479;-86
2022/10/03 07:59:29;;;;;;;6.93;5.97;;;16.60;97.10;;;;;;5062947;28;20463;-84
2022/10/03 08:02:36;;;;;;;9.80;5.03;;;16.30;97.50;;;;;;5074989;28;20464;-83
2022/10/03 08:05:34;;;;;;;10.10;6.20;;;16.50;98.00;;;;;;5072846;28;20522;-84
2022/10/03 08:08:15;;;;;;;9.93;6.30;;;16.50;98.20;;;;;;5075312;28;20467;-84
2022/10/03 08:11:06;;;;;;;8.50;5.63;;;16.50;98.00;;;;;;5075432;28;20554;-84
2022/10/03 08:13:48;;;;;;;10.90;6.10;;;16.50;97.90;;;;;;5056412;28;20460;-86
2022/10/03 08:16:49;;;;;;;10.23;6.20;;;16.30;98.20;;;;;;5054332;28;20455;-85
2022/10/03 08:19:26;;;;;;;9.37;5.90;;;16.10;98.70;;;;;;5068326;28;20463;-84
2022/10/03 08:22:10;;;;;;;11.23;6.80;;;15.90;99.40;;;;;;5063991;28;20513;-83
2022/10/03 08:24:57;;;;;;;7.70;5.73;;;15.70;99.90;;;;;;5065462;28;21077;-85
2022/10/03 08:27:28;;;;;;;10.47;6.40;;;15.80;99.90;;;;;;5065142;28;20489;-84
2022/10/03 08:30:18;;;;;;;11.43;6.43;;;15.80;99.90;;;;;;5050144;28;20513;-83
2022/10/03 08:33:23;;;;;;;8.40;6.53;;;16.00;99.90;;;;;;5048918;28;20467;-84
2022/10/03 08:36:13;;;;;;;14.57;6.60;;;16.00;99.90;;;;;;5052717;28;20532;-85
2022/10/03 08:38:52;;;;;;;11.30;6.20;;;16.30;99.90;;;;;;5064822;28;20463;-83
2022/10/03 08:41:37;;;;;;;8.13;4.63;;;16.50;99.10;;;;;;5048681;28;20451;-85
2022/10/03 08:44:22;;;;;;;14.70;5.33;;;16.40;99.00;;;;;;5047962;28;20854;-84
2022/10/03 08:47:31;;;;;;;7.57;4.70;;;16.50;99.30;;;;;;5050300;28;20464;-83
2022/10/03 08:50:26;;;;;;;6.73;4.03;;;16.80;98.80;;;;;;5049103;28;20466;-82
2022/10/03 08:53:30;;;;;;;10.20;4.27;;;16.50;98.30;;;;;;5052376;28;20464;-83
2022/10/03 08:56:31;;;;;;;14.53;4.73;;;16.30;98.50;;;;;;5050516;28;20462;-83
2022/10/03 08:59:37;;;;;;;7.90;4.30;;;16.10;99.00;;;;;;5067038;28;20477;-86
2022/10/03 09:02:46;;;;;;;9.93;3.73;;;15.90;99.70;;;;;;5056890;28;20453;-85
2022/10/03 09:05:54;;;;;;;10.63;4.03;;;16.30;99.70;;;;;;5055153;28;20728;-85
2022/10/03 09:09:07;;;;;;;7.67;3.63;;;16.30;99.20;;;;;;5068053;28;20461;-83
2022/10/03 09:12:30;;;;;;;8.13;3.60;;;16.30;98.90;;;;;;5033571;28;20444;-85
2022/10/03 09:15:44;;;;;;;12.80;4.03;;;16.30;99.00;;;;;;5063626;28;20468;-84
2022/10/03 09:18:58;;;;;;;8.60;2.97;;;16.30;98.70;;;;;;5060587;28;20525;-84
2022/10/03 09:22:07;;;;;;;6.40;2.73;;;16.50;98.60;;;;;;5066637;28;20456;-85
2022/10/03 09:24:58;;;;;;;9.40;4.50;;;16.70;98.00;;;;;;5044389;28;20480;-85
2022/10/03 09:28:13;;;;;;;6.60;3.93;;;17.00;98.20;;;;;;5053939;28;20453;-86
2022/10/03 09:31:32;;;;;;;10.83;3.93;;;17.70;97.20;;;;;;5054128;28;20460;-84
2022/10/03 09:34:32;;;;;;;;;;;;;;;;;;;;;
2022/10/03 09:37:19;;;;;;;8.53;3.77;;;17.70;96.50;;;;;;5053993;28;20491;-85
2022/10/03 09:41:00;;;;;;;10.23;3.80;;;18.70;95.10;;;;;;5056179;28;20447;-85
2022/10/03 09:44:39;;;;;;;8.30;4.07;;;18.90;93.90;;;;;;5034316;28;20545;-84
2022/10/03 09:47:41;;;;;;;5.43;3.53;;;19.50;92.60;;;;;;4994757;28;20435;-84
2022/10/03 09:50:53;;;;;;;7.40;3.50;;;20.10;91.40;;;;;;5006712;28;20548;-84
2022/10/03 09:53:35;;;;;;;3.50;3.00;;;19.80;91.60;;;;;;4992136;28;20486;-84
2022/10/03 09:56:27;;;;;;;5.83;2.50;;;20.00;91.40;;;;;;4992664;28;20540;-85
2022/10/03 09:59:45;;;;;;;3.27;2.10;;;20.80;91.10;;;;;;4992854;28;20458;-84
2022/10/03 10:03:04;;;;;;;4.07;1.90;;;21.50;86.30;;;;;;4981456;28;20505;-84
2022/10/03 10:05:57;;;;;;;3.57;1.90;;;21.90;81.30;;;;;;5095487;22;20494;-84
2022/10/03 10:08:53;;;;;;;4.50;2.30;;;21.70;83.10;;;;;;5065479;28;20444;-83
2022/10/03 10:12:05;;;;;;;3.60;1.70;;;21.90;80.30;;;;;;5072288;28;20447;-84
2022/10/03 10:15:15;;;;;;;8.43;2.43;;;21.60;80.30;;;;;;5068938;28;20479;-86
2022/10/03 10:18:56;;;;;;;7.80;2.37;;;21.00;82.30;;;;;;5069600;28;20443;-85
2022/10/03 10:22:00;;;;;;;6.00;2.07;;;20.20;85.20;;;;;;5073228;28;20475;-84
2022/10/03 10:24:59;;;;;;;5.87;1.97;;;20.00;87.50;;;;;;5089568;28;20493;-86
2022/10/03 10:28:34;;;;;;;3.77;2.20;;;19.60;88.70;;;;;;5078106;28;20563;-85
2022/10/03 10:31:54;;;;;;;5.77;2.10;;;19.00;90.30;;;;;;5023565;28;20461;-85
2022/10/03 10:34:53;;;;;;;6.70;2.10;;;18.60;91.20;;;;;;5078084;28;20926;-84
2022/10/03 10:38:29;;;;;;;5.03;2.07;;;18.40;92.20;;;;;;5077216;28;20462;-85
2022/10/03 10:41:40;;;;;;;7.90;2.20;;;18.40;92.60;;;;;;5075278;28;20452;-84
2022/10/03 10:44:40;;;;;;;4.50;1.70;;;18.00;92.90;;;;;;5068975;28;20460;-84
2022/10/03 10:47:52;;;;;;;10.23;2.00;;;17.90;93.70;;;;;;5067238;28;20566;-86
2022/10/03 10:51:12;;;;;;;3.30;1.93;;;17.80;93.50;;;;;;5069151;28;20491;-85
2022/10/03 10:54:09;;;;;;;3.83;1.70;;;18.10;93.40;;;;;;5067707;28;20472;-85
2022/10/03 11:00:56;;;;;;;4.13;1.93;;;18.40;92.20;;;;;;5040317;28;20460;-84
2022/10/03 11:04:09;;;;;;;5.70;2.00;;;18.30;92.00;;;;;;5066214;28;20478;-85
2022/10/03 11:07:18;;;;;;;3.43;1.57;;;18.50;92.30;;;;;;5043673;28;20491;-86
2022/10/03 11:10:30;;;;;;;8.57;1.43;;;19.00;90.90;;;;;;5065479;28;20475;-84
2022/10/03 11:13:42;;;;;;;6.00;1.90;;;19.90;87.10;;;;;;5067759;28;20475;-87
2022/10/03 11:16:56;;;;;;;7.63;2.30;;;19.70;87.20;;;;;;5071317;28;20459;-83
2022/10/03 11:20:00;;;;;;;6.80;1.90;;;19.70;88.10;;;;;;5067608;28;20458;-85
2022/10/03 11:22:42;;;;;;;3.00;1.27;;;19.10;87.60;;;;;;5065011;28;20463;-85
2022/10/03 11:25:50;;;;;;;6.33;1.70;;;19.50;85.10;;;;;;5064158;28;20483;-86
2022/10/03 11:28:55;;;;;;;5.07;1.50;;;19.60;84.20;;;;;;5065576;28;21006;-84
2022/10/03 11:31:40;;;;;;;5.50;1.67;;;19.30;82.90;;;;;;5062488;28;20489;-84
2022/10/03 11:34:35;;;;;;;3.70;1.90;;;19.30;86.90;;;;;;5063991;28;20467;-83
2022/10/03 11:37:24;;;;;;;7.37;2.27;;;19.30;89.70;;;;;;5067715;28;20455;-84
2022/10/03 11:40:19;;;;;;;7.23;2.07;;;19.50;89.80;;;;;;5063361;28;20597;-83
2022/10/03 11:43:10;;;;;;;8.27;2.33;;;19.30;89.40;;;;;;5074342;28;20456;-85
2022/10/03 11:45:50;;;;;;;3.93;1.60;;;19.50;89.70;;;;;;5065388;28;21851;-83
2022/10/03 11:48:32;;;;;;;4.57;1.57;;;19.40;89.10;;;;;;5061030;28;20451;-83
2022/10/03 11:51:35;;;;;;;5.33;2.30;;;19.00;90.40;;;;;;5062150;28;20456;-84
2022/10/03 11:54:26;;;;;;;2.13;1.87;;;19.30;89.80;;;;;;5065257;28;20536;-85
2022/10/03 11:57:26;;;;;;;5.17;1.80;;;19.30;89.60;;;;;;5064306;28;20463;-84
2022/10/03 12:00:03;;;;;;;8.50;1.70;;;19.20;90.10;;;;;;5068260;28;20946;-84
2022/10/03 12:02:39;;;;;;;4.30;1.30;;;18.70;90.40;;;;;;5067542;28;20447;-83
2022/10/03 12:05:31;;;;;;;5.53;2.00;;;18.70;91.40;;;;;;5065004;22;20558;-84
2022/10/03 12:11:29;;;;;;;4.60;1.83;;;19.70;89.90;;;;;;5053536;28;20987;-86
2022/10/03 12:14:14;;;;;;;4.63;2.07;;;20.10;88.40;;;;;;5041066;28;20521;-83
2022/10/03 12:17:11;;;;;;;3.40;1.60;;;20.40;87.20;;;;;;5036895;28;20452;-83
2022/10/03 12:19:59;;;;;;;6.37;1.80;;;20.90;83.20;;;;;;5036505;28;20464;-84
2022/10/03 12:23:01;;;;;;;4.03;1.43;;;20.40;84.40;;;;;;5039067;28;20456;-84
2022/10/03 12:25:40;;;;;;;2.60;1.77;;;20.50;81.60;;;;;;5041922;28;20504;-85
2022/10/03 12:28:24;;;;;;;2.77;1.50;;;20.00;81.80;;;;;;5035381;28;20455;-84
2022/10/03 12:34:48;;;;;;;2.97;1.57;;;19.40;84.30;;;;;;5025020;28;20487;-82
2022/10/03 12:37:41;;;;;;;2.30;1.50;;;19.90;84.00;;;;;;5030773;28;21179;-84
2022/10/03 12:40:27;;;;;;;2.90;1.37;;;19.90;83.00;;;;;;5032134;28;20467;-84
2022/10/03 12:43:33;;;;;;;4.33;2.10;;;20.10;81.90;;;;;;5037794;28;20524;-86
2022/10/03 12:46:35;;;;;;;2.70;1.47;;;19.70;82.30;;;;;;5054805;28;20539;-84
2022/10/03 12:49:40;;;;;;;5.63;1.63;;;19.30;83.30;;;;;;5035399;28;20454;-85
2022/10/03 12:52:22;;;;;;;3.93;1.20;;;19.20;84.30;;;;;;5014718;28;20514;-82
2022/10/03 12:55:06;;;;;;;1.60;1.10;;;18.90;83.20;;;;;;5042389;28;20551;-85
2022/10/03 12:57:48;;;;;;;3.10;1.67;;;18.70;82.40;;;;;;5026584;28;20469;-84
2022/10/03 13:00:26;;;;;;;2.27;1.10;;;18.70;82.90;;;;;;5053079;28;20618;-83
2022/10/03 13:03:30;;;;;;;2.57;1.30;;;18.80;83.30;;;;;;5051198;28;20506;-84
2022/10/03 13:06:27;;;;;;;4.00;1.43;;;19.50;81.50;;;;;;5037939;28;21924;-85
2022/10/03 13:09:35;;;;;;;5.40;1.33;;;19.60;80.00;;;;;;5040549;28;21141;-84
2022/10/03 13:12:18;;;;;;;3.70;3.23;;;19.30;80.70;;;;;;5036701;28;20463;-84
2022/10/03 13:15:28;;;;;;;6.63;1.93;;;19.40;81.20;;;;;;5038878;28;20543;-83
2022/10/03 13:18:35;;;;;;;4.20;1.53;;;19.10;83.20;;;;;;5056973;28;20465;-85
2022/10/03 13:21:08;;;;;;;4.60;2.40;;;18.90;84.80;;;;;;5044206;28;20448;-84
2022/10/03 13:24:04;;;;;;;3.93;1.63;;;19.00;86.10;;;;;;5051194;28;20476;-85
2022/10/03 13:26:41;;;;;;;2.23;1.60;;;19.20;86.10;;;;;;5054421;28;20470;-84
2022/10/03 13:29:22;;;;;;;3.67;1.97;;;19.60;84.90;;;;;;5052882;28;20456;-84
2022/10/03 13:32:11;;;;;;;4.23;2.17;;;19.50;84.90;;;;;;5043626;28;20475;-86
2022/10/03 13:34:48;;;;;;;3.90;1.90;;;19.10;85.40;;;;;;5053521;28;21004;-83
2022/10/03 13:37:49;;;;;;;3.30;1.93;;;18.80;86.80;;;;;;5046177;28;20475;-84
2022/10/03 13:40:18;;;;;;;2.23;1.40;;;18.90;87.20;;;;;;5031345;28;20462;-85
2022/10/03 13:42:52;;;;;;;8.20;1.93;;;18.80;88.10;;;;;;5035898;28;20496;-85
2022/10/03 13:45:25;;;;;;;6.30;2.30;;;18.60;87.40;;;;;;5034851;28;20494;-82
2022/10/03 13:48:03;;;;;;;5.37;1.90;;;18.60;87.80;;;;;;5052312;28;20539;-84
2022/10/03 13:50:41;;;;;;;6.03;1.83;;;18.80;89.00;;;;;;5039751;28;20456;-85
2022/10/03 13:53:15;;;;;;;4.33;1.90;;;19.30;87.70;;;;;;5040043;28;20504;-84
2022/10/03 13:55:49;;;;;;;3.20;1.70;;;19.60;84.70;;;;;;5045013;28;20460;-84
2022/10/03 13:58:35;;;;;;;4.43;2.33;;;20.00;82.50;;;;;;5042574;28;20459;-84
2022/10/03 14:01:03;;;;;;;3.07;1.50;;;19.90;82.20;;;;;;5045022;28;20456;-84
2022/10/03 14:03:51;;;;;;;2.30;1.60;;;19.60;83.20;;;;;;5048232;28;20548;-85
2022/10/03 14:06:33;;;;;;;2.23;1.20;;;19.50;83.40;;;;;;5060834;28;20490;-82
2022/10/03 14:09:42;;;;;;;4.50;1.87;;;19.40;83.40;;;;;;5049571;28;20550;-83
2022/10/03 14:12:48;;;;;;;3.67;1.70;;;19.50;83.40;;;;;;5028673;28;20451;-84
2022/10/03 14:15:47;;;;;;;4.47;1.40;;;19.60;82.50;;;;;;5045667;28;20488;-85
2022/10/03 14:18:21;;;;;;;3.17;1.47;;;19.50;82.30;;;;;;5066398;28;20464;-84
2022/10/03 14:21:11;;;;;;;3.27;1.50;;;19.60;83.10;;;;;;5067252;28;20435;-85
2022/10/03 14:23:50;;;;;;;1.50;1.20;;;19.70;82.30;;;;;;5069221;28;20453;-85
2022/10/03 14:26:20;;;;;;;2.83;1.50;;;19.30;83.20;;;;;;5060524;28;20543;-85
2022/10/03 14:29:36;;;;;;;3.03;1.50;;;19.40;83.20;;;;;;5032412;28;20786;-84
2022/10/03 14:32:20;;;;;;;3.23;1.67;;;19.30;83.70;;;;;;5042667;28;20480;-87
2022/10/03 14:35:14;;;;;;;5.73;2.23;;;19.10;84.50;;;;;;5049625;28;20571;-84
2022/10/03 14:38:11;;;;;;;2.60;1.63;;;19.40;84.50;;;;;;5034028;28;20452;-85
2022/10/03 14:40:50;;;;;;;5.83;2.13;;;20.00;83.00;;;;;;5033480;28;20456;-83
2022/10/03 14:43:32;;;;;;;4.30;2.37;;;20.10;81.60;;;;;;5052980;28;20518;-83
2022/10/03 14:46:04;;;;;;;4.27;1.70;;;20.10;80.30;;;;;;5035687;28;20480;-84
2022/10/03 14:48:36;;;;;;;3.97;1.63;;;19.90;81.00;;;;;;5045467;28;20473;-84
2022/10/03 14:51:22;;;;;;;3.73;1.60;;;19.80;81.30;;;;;;5032984;28;20866;-84
2022/10/03 14:54:04;;;;;;;4.10;1.60;;;19.70;80.90;;;;;;5036100;28;20465;-85
2022/10/03 14:56:43;;;;;;;3.13;1.87;;;19.60;81.60;;;;;;5050259;28;20552;-84
2022/10/03 14:59:21;;;;;;;3.53;1.20;;;19.40;82.00;;;;;;5051327;28;20518;-85
2022/10/03 15:01:53;;;;;;;4.03;2.00;;;19.20;83.20;;;;;;5039068;28;20487;-84
2022/10/03 15:04:29;;;;;;;3.47;1.87;;;19.20;84.10;;;;;;5037608;28;20485;-86
2022/10/03 15:06:59;;;;;;;3.10;1.80;;;19.40;82.90;;;;;;5047797;28;20514;-86
2022/10/03 15:09:34;;;;;;;2.40;1.77;;;19.50;83.70;;;;;;5048199;28;20497;-85
2022/10/03 15:12:12;;;;;;;4.17;1.37;;;19.40;83.60;;;;;;5049648;28;20451;-84
2022/10/03 15:14:43;;;;;;;2.00;1.80;;;19.40;83.20;;;;;;5037555;28;20493;-81